Terminal Aerodrome Forecast
Issued by NWS Lubbock, TX

Home | Current Version | Previous Version | Text Only | Print | Product List | Glossary On
Versions: 1 2 3 4 5 6 7 8 9 10 11 12 13 14 15 16 17 18
371
FTUS44 KLUB 202321
TAFLBB
TAF
KLBB 202321Z 2100/2124 02007KT P6SM SKC
     FM210700 16007KT P6SM SKC WS020/22045KT
     FM211300 20011KT P6SM FEW250=

USA.gov is the U.S. government's official web portal to all federal, state and local government web resources and services.